Data for 08/06/2014

Time Sea-Level Adjusted Pressure Absolute Pressure Temperature Relative Humidity Dew Point   
(mb) (inHg) (mb) (inHg) (C) (F) (%) (C) (F)
00:05 1021 30.15 850 25.1 18 64.4 60 10.3 50.5
00:10 1020 30.12 850 25.1 17.9 64.3 61 10.3 50.6
00:15 1020 30.12 850 25.1 17.7 63.8 61 10.1 50.2
00:20 1020 30.12 850 25.1 17.5 63.4 62 10.1 50.2
00:25 1020 30.12 850 25.1 17.2 62.9 63 10.1 50.1
00:30 1020 30.12 850 25.1 17 62.5 64 10.2 50.3
00:35 1020 30.12 850 25.1 17 62.5 64 10.2 50.3
00:40 1020 30.12 850 25.1 16.9 62.5 64 10.2 50.3
00:45 1020 30.12 850 25.1 16.8 62.2 65 10.3 50.5
00:50 1020 30.12 850 25.1 16.7 62.1 65 10.2 50.3
00:55 1020 30.12 850 25.1 16.8 62.2 65 10.3 50.6
01:00 1020 30.12 850 25.1 16.7 62 66 10.4 50.6
01:05 1020 30.12 850 25.1 16.6 61.8 67 10.4 50.7
01:10 1020 30.12 850 25.1 16.5 61.7 67 10.4 50.6
01:15 1020 30.12 850 25.1 16.5 61.6 67 10.4 50.8
01:20 1020 30.12 850 25.1 16.4 61.5 67 10.4 50.8
01:25 1020 30.12 850 25.1 16.4 61.5 68 10.6 51
01:30 1021 30.15 850 25.1 16.3 61.4 69 10.7 51.2
01:35 1021 30.15 850 25.1 16.2 61.2 68 10.4 50.8
01:40 1020 30.12 850 25.1 16 60.8 69 10.3 50.5
01:45 1020 30.12 850 25.1 15.9 60.7 68 10.1 50.1
01:50 1020 30.12 850 25.1 15.8 60.4 69 10.1 50.2
01:55 1020 30.12 850 25.1 15.5 59.8 69 9.9 49.9
02:00 1020 30.12 850 25.1 15.4 59.7 69 9.7 49.5
02:05 1020 30.12 850 25.1 15.5 59.8 68 9.7 49.5
02:10 1020 30.12 850 25.1 15.5 60 69 9.9 49.7
02:15 1020 30.12 850 25.1 15.4 59.8 69 9.8 49.7
02:20 1021 30.15 850 25.1 15.2 59.3 70 9.8 49.6
02:25 1021 30.15 850 25.1 15.1 59.2 70 9.6 49.3
02:30 1021 30.15 850 25.1 15.1 59.2 69 9.6 49.3
02:35 1021 30.15 850 25.1 15.1 59.2 69 9.5 49.2
02:40 1021 30.15 850 25.1 15.2 59.3 69 9.6 49.3
02:45 1021 30.15 850 25.1 15.3 59.5 69 9.7 49.5
02:50 1021 30.15 850 25.1 15.2 59.3 69 9.6 49.2
02:55 1021 30.15 850 25.1 15.1 59.3 70 9.7 49.4
03:00 1021 30.15 850 25.1 15.1 59.2 68 9.3 48.8
03:05 1021 30.15 850 25.1 15.3 59.6 67 9.4 48.9
03:10 1021 30.15 850 25.1 15.4 59.7 67 9.5 49
03:15 1021 30.15 850 25.1 15.4 59.7 67 9.4 49
03:20 1021 30.15 850 25.1 15.5 59.9 67 9.5 49.1
03:25 1021 30.15 850 25.1 15.4 59.8 68 9.5 49.2
03:30 1021 30.15 850 25.1 15.2 59.4 70 9.9 49.8
03:35 1021 30.15 850 25.1 15.1 59.2 67 9.2 48.5
03:40 1021 30.15 850 25.1 15 58.9 67 9 48.2
03:45 1021 30.15 850 25.1 15 59 66 8.8 47.8
03:50 1021 30.15 850 25.1 15.1 59.1 67 9.1 48.4
03:55 1021 30.15 850 25.1 14.9 58.9 68 9.1 48.3
04:00 1021 30.15 850 25.1 14.7 58.5 70 9.3 48.7
04:05 1021 30.15 850 25.1 14.5 58 70 9.2 48.5
04:10 1021 30.15 850 25.1 14.2 57.6 70 8.9 47.9
04:15 1021 30.15 850 25.1 14.2 57.6 70 8.9 48
04:20 1021 30.15 850 25.1 14.2 57.6 70 8.9 48
04:25 1021 30.15 850 25.1 14.3 57.8 70 9 48.2
04:30 1021 30.15 850 25.1 14.5 58.2 70 9.2 48.5
04:35 1021 30.15 850 25.1 14.6 58.2 70 9.2 48.6
04:40 1021 30.15 850 25.1 14.4 57.8 71 9.1 48.4
04:45 1021 30.15 850 25.1 14.2 57.6 70 8.9 48.1
04:50 1021 30.15 850 25.1 14.2 57.5 70 8.9 47.9
04:55 1021 30.15 850 25.1 14.3 57.7 69 8.8 47.8
05:00 1021 30.15 850 25.1 14.4 57.8 68 8.6 47.6
05:05 1021 30.15 850 25.1 14.3 57.8 68 8.5 47.3
05:10 1021 30.15 850 25.1 14.2 57.6 69 8.7 47.6
05:15 1021 30.15 850 25.1 14.2 57.5 69 8.7 47.7
05:20 1021 30.15 850 25.1 14.1 57.3 70 8.7 47.6
05:25 1021 30.15 850 25.1 14.2 57.6 70 8.8 47.9
05:30 1021 30.15 850 25.1 14.3 57.7 71 9 48.3
05:35 1021 30.15 850 25.1 14.2 57.5 70 8.8 47.9
05:40 1021 30.15 850 25.1 14.2 57.6 69 8.7 47.6
05:45 1021 30.15 850 25.1 14 57.2 68 8.3 46.9
05:50 1021 30.15 850 25.1 14.1 57.4 67 8 46.5
05:55 1021 30.15 851 25.13 14.3 57.8 67 8.2 46.8
06:00 1021 30.15 851 25.13 14.5 58.2 66 8.4 47.1
06:05 1021 30.15 851 25.13 14.6 58.3 68 8.9 48
06:10 1021 30.15 851 25.13 14.6 58.3 69 9 48.2
06:15 1021 30.15 851 25.13 14.6 58.3 68 8.8 47.8
06:20 1022 30.18 851 25.13 14.6 58.3 67 8.5 47.4
06:25 1021 30.15 851 25.13 15.1 59.2 64 8.4 47.2
06:30 1021 30.15 851 25.13 15.2 59.4 62 8.1 46.7
06:35 1022 30.18 851 25.13 15.3 59.6 62 8.2 46.7
06:40 1022 30.18 851 25.13 15.6 60 61 8.2 46.7
06:45 1022 30.18 851 25.13 16 60.7 62 8.8 47.8
06:50 1022 30.18 851 25.13 16.3 61.3 60 8.5 47.2
06:55 1022 30.18 851 25.13 16.6 62 64 9.9 49.8
07:00 1022 30.18 851 25.13 16.9 62.3 62 9.7 49.5
07:05 1022 30.18 851 25.13 16.7 62 65 10.1 50.1
07:10 1022 30.18 851 25.13 16.5 61.7 66 10.1 50.2
07:15 1022 30.18 851 25.13 16.7 62.1 65 10.1 50.1
07:20 1022 30.18 851 25.13 16.9 62.5 63 9.9 49.9
07:25 1022 30.18 851 25.13 17.3 63.2 61 9.7 49.4
07:30 1022 30.18 851 25.13 17.9 64.2 57 9.5 49
07:35 1022 30.18 851 25.13 18.1 64.5 59 10.1 50.3
07:40 1022 30.18 851 25.13 18.2 64.7 59 10.1 50.2
07:45 1022 30.18 851 25.13 18.7 65.7 58 10.5 50.9
07:50 1022 30.18 851 25.13 18.7 65.7 55 9.6 49.4
07:55 1022 30.18 851 25.13 19.2 66.5 53 9.6 49.3
08:00 1022 30.18 851 25.13 20 68.1 51 9.7 49.5
08:05 1022 30.18 851 25.13 20.2 68.3 51 10 50
08:10 1022 30.18 851 25.13 20.1 68.2 51 9.8 49.7
08:15 1022 30.18 851 25.13 20.1 68.2 50 9.4 48.9
08:20 1022 30.18 851 25.13 20 67.9 49 9.1 48.5
08:25 1022 30.18 851 25.13 19.9 67.8 48 8.8 47.8
08:30 1021 30.15 851 25.13 20.3 68.5 49 9.2 48.6
08:35 1021 30.15 851 25.13 20.7 69.3 47 9.1 48.4
08:40 1021 30.15 851 25.13 21.2 70.2 43 8.4 47.1
08:45 1021 30.15 851 25.13 21.4 70.5 42 8 46.4
08:50 1021 30.15 851 25.13 22.1 71.8 43 9 48.2
08:55 1021 30.15 851 25.13 22.3 72.1 43 9.2 48.6
09:00 1021 30.15 851 25.13 22.7 72.8 41 9.1 48.4
09:05 1021 30.15 851 25.13 22.7 72.8 42 9.2 48.5
09:10 1021 30.15 851 25.13 22.6 72.7 42 9.4 48.9
09:15 1021 30.15 850 25.1 22.8 73 41 9.1 48.4
09:20 1021 30.15 850 25.1 23.3 74 41 9.4 48.9
09:25 1021 30.15 850 25.1 22.7 72.9 41 9.1 48.4
09:30 1021 30.15 850 25.1 23.2 73.8 40 9.1 48.5
09:35 1021 30.15 850 25.1 24.2 75.6 37 8.7 47.7
09:40 1021 30.15 850 25.1 24.3 75.7 36 8.6 47.5
09:45 1021 30.15 850 25.1 24.5 76.2 37 9.3 48.7
09:50 1021 30.15 850 25.1 24.7 76.5 37 9.2 48.5
09:55 1021 30.15 850 25.1 24.8 76.7 37 9.3 48.8
10:00 1021 30.15 850 25.1 24.5 76.1 38 9.4 48.9
10:05 1021 30.15 850 25.1 24.5 76.1 37 9 48.3
10:10 1021 30.15 850 25.1 24.5 76 37 9.1 48.4
10:15 1021 30.15 850 25.1 24.6 76.2 36 8.9 47.9
10:20 1021 30.15 850 25.1 24.1 75.4 40 10 49.9
10:25 1021 30.15 850 25.1 23.5 74.3 41 9.8 49.7
10:30 1021 30.15 850 25.1 24.1 75.4 40 9.9 49.8
10:35 1021 30.15 850 25.1 23.7 74.6 41 10 50
10:40 1021 30.15 850 25.1 23.2 73.8 42 9.7 49.4
10:45 1021 30.15 850 25.1 23.8 74.8 41 9.9 49.8
10:50 1021 30.15 850 25.1 23.9 75.1 41 10.1 50.2
10:55 1021 30.15 850 25.1 24 75.1 39 9.3 48.7
11:00 1021 30.15 850 25.1 24 75.2 39 9.5 49.1
11:05 1021 30.15 850 25.1 24.3 75.7 37 8.9 48
11:10 1021 30.15 850 25.1 24.1 75.4 39 9.4 49
11:15 1021 30.15 850 25.1 23.8 74.8 39 9.2 48.6
11:20 1021 30.15 850 25.1 24.1 75.3 37 8.8 47.9
11:25 1021 30.15 850 25.1 24.5 76.2 39 9.8 49.7
11:30 1021 30.15 850 25.1 25.1 77.1 37 9.4 49
11:35 1021 30.15 850 25.1 24.9 76.8 35 8.6 47.5
11:40 1021 30.15 850 25.1 24.6 76.2 36 8.7 47.6
11:45 1021 30.15 850 25.1 25.2 77.4 34 8.5 47.3
11:50 1021 30.15 850 25.1 25.2 77.3 34 8.5 47.2
11:55 1021 30.15 850 25.1 25.1 77.3 32 7.7 45.9
12:00 1021 30.15 850 25.1 25.2 77.4 33 8 46.4
12:05 1021 30.15 850 25.1 25.8 78.5 32 8 46.3
12:10 1021 30.15 850 25.1 26 78.8 31 7.9 46.3
12:15 1021 30.15 850 25.1 26 78.8 30 7.3 45.1
12:20 1021 30.15 850 25.1 26.4 79.5 28 6.6 43.8
12:25 1021 30.15 850 25.1 27.3 81.1 26 6.5 43.8
12:30 1020 30.12 850 25.1 28.1 82.6 26 7 44.7
12:35 1020 30.12 850 25.1 28.9 84 24 6.8 44.3
12:40 1020 30.12 850 25.1 28.5 83.4 25 7.1 44.8
12:45 1020 30.12 850 25.1 28.5 83.3 25 6.6 43.9
12:50 1020 30.12 850 25.1 27.5 81.5 26 6.8 44.3
12:55 1020 30.12 850 25.1 27 80.7 27 6.9 44.3
13:00 1020 30.12 850 25.1 27.4 81.2 26 6.7 44
13:05 1020 30.12 849 25.07 26.9 80.4 27 6.8 44.2
13:10 1020 30.12 849 25.07 27.6 81.8 26 6.8 44.2
13:15 1020 30.12 849 25.07 27.5 81.4 26 6.3 43.4
13:20 1020 30.12 849 25.07 28 82.3 25 6.4 43.4
13:25 1020 30.12 849 25.07 27.8 82.1 24 6 42.8
13:30 1020 30.12 849 25.07 28.4 83.1 24 6.4 43.4
13:35 1020 30.12 849 25.07 29 84.1 23 6.4 43.4
13:40 1020 30.12 849 25.07 29 84.3 23 5.9 42.7
13:45 1020 30.12 849 25.07 29.3 84.7 22 5.8 42.5
13:50 1020 30.12 849 25.07 29 84.3 24 6.5 43.7
13:55 1020 30.12 849 25.07 28.1 82.5 24 5.6 42.1
14:00 1020 30.12 849 25.07 28.4 83.1 22 5.2 41.3
14:05 1020 30.12 849 25.07 27.6 81.6 28 7.9 46.3
14:10 1020 30.12 849 25.07 27 80.7 27 6.7 44.1
14:15 1020 30.12 849 25.07 27.3 81.1 26 6.2 43.1
14:20 1020 30.12 849 25.07 27.1 80.7 26 6.1 43
14:25 1020 30.12 849 25.07 26.7 80 26 5.7 42.3
14:30 1020 30.12 849 25.07 26.4 79.5 27 6.3 43.3
14:35 1020 30.12 849 25.07 26.5 79.6 26 5.6 42.1
14:40 1020 30.12 849 25.07 26.9 80.5 25 5.2 41.4
14:45 1020 30.12 849 25.07 27.3 81.1 25 5.9 42.7
14:50 1019 30.09 849 25.07 27.3 81.1 24 5.5 41.9
14:55 1019 30.09 849 25.07 28.7 83.7 22 5.2 41.4
15:00 1019 30.09 849 25.07 28.5 83.2 24 6.4 43.4
15:05 1020 30.12 849 25.07 28.3 82.9 22 4.9 40.9
15:10 1020 30.12 849 25.07 28.2 82.8 22 4.9 40.8
15:15 1019 30.09 849 25.07 27.6 81.6 22 4.5 40.1
15:20 1019 30.09 849 25.07 27.3 81.2 23 4.5 40.1
15:25 1019 30.09 849 25.07 27.3 81.2 23 5 40.9
15:30 1019 30.09 849 25.07 26.9 80.4 24 4.9 40.9
15:35 1019 30.09 849 25.07 26.7 80 26 5.9 42.6
15:40 1019 30.09 849 25.07 26.5 79.7 25 5 41
15:45 1019 30.09 849 25.07 26.6 79.9 25 5 41.1
15:50 1019 30.09 848 25.04 26.4 79.6 25 5 41.1
15:55 1019 30.09 848 25.04 26.4 79.6 26 5.4 41.8
16:00 1019 30.09 848 25.04 26.1 79.1 25 4.8 40.7
16:05 1019 30.09 848 25.04 26.5 79.6 25 5.3 41.5
16:10 1019 30.09 848 25.04 26.7 80.1 24 4.8 40.6
16:15 1019 30.09 848 25.04 26.5 79.7 27 6.4 43.5
16:20 1019 30.09 848 25.04 25.8 78.5 29 6.4 43.6
16:25 1019 30.09 848 25.04 25.7 78.2 28 6.1 43
16:30 1019 30.09 848 25.04 25.8 78.5 29 6.7 44.1
16:35 1019 30.09 848 25.04 26 78.8 31 7.9 46.3
16:40 1019 30.09 848 25.04 26.1 79 29 6.9 44.4
16:45 1019 30.09 848 25.04 26 78.7 30 7.4 45.2
16:50 1019 30.09 848 25.04 26.2 79.1 32 8.3 47
16:55 1019 30.09 848 25.04 26 78.8 33 8.6 47.4
17:00 1019 30.09 848 25.04 25.5 77.8 34 8.7 47.7
17:05 1019 30.09 848 25.04 25.1 77.1 34 8.3 47
17:10 1019 30.09 848 25.04 25 77 34 8.1 46.6
17:15 1019 30.09 848 25.04 25 76.9 33 8 46.4
17:20 1019 30.09 848 25.04 25 76.9 32 7.5 45.6
17:25 1019 30.09 848 25.04 24.9 76.9 32 7.1 44.8
17:30 1019 30.09 848 25.04 24.7 76.5 32 7.4 45.2
17:35 1019 30.09 848 25.04 24.6 76.3 34 8.1 46.6
17:40 1019 30.09 848 25.04 24.5 76 34 7.9 46.3
17:45 1019 30.09 848 25.04 24.2 75.5 35 7.8 46.1
17:50 1019 30.09 848 25.04 24.1 75.4 35 8.1 46.6
17:55 1019 30.09 848 25.04 24.2 75.5 37 8.7 47.7
18:00 1019 30.09 848 25.04 24.3 75.7 36 8.5 47.3
18:05 1019 30.09 848 25.04 24.1 75.4 34 7.7 45.8
18:10 1019 30.09 848 25.04 24.2 75.5 34 7.5 45.6
18:15 1019 30.09 848 25.04 24.2 75.6 33 7.1 44.8
18:20 1019 30.09 848 25.04 24.4 75.8 33 7.1 44.8
18:25 1019 30.09 848 25.04 24.2 75.6 33 7.1 44.8
18:30 1019 30.09 848 25.04 24.2 75.5 35 8 46.4
18:35 1019 30.09 849 25.07 24.2 75.5 38 9.3 48.7
18:40 1019 30.09 849 25.07 23.8 74.8 40 9.5 49
18:45 1019 30.09 849 25.07 23.5 74.3 37 8.2 46.8
18:50 1019 30.09 849 25.07 23.5 74.3 40 9.3 48.8
18:55 1019 30.09 849 25.07 23.3 74 41 9.4 48.9
19:00 1019 30.09 849 25.07 23.2 73.7 42 9.7 49.4
19:05 1019 30.09 849 25.07 22.8 73.1 42 9.5 49.1
19:10 1019 30.09 849 25.07 22.6 72.6 40 8.5 47.3
19:15 1019 30.09 849 25.07 22.4 72.3 40 8.3 47
19:20 1019 30.09 849 25.07 22.2 72 40 8.1 46.6
19:25 1019 30.09 849 25.07 22.3 72.1 42 9 48.1
19:30 1019 30.09 849 25.07 21.9 71.4 45 9.4 49
19:35 1019 30.09 849 25.07 21.8 71.2 45 9.5 49.2
19:40 1019 30.09 849 25.07 21.6 71 46 9.5 49.2
19:45 1019 30.09 849 25.07 21.4 70.6 46 9.5 49
19:50 1020 30.12 849 25.07 21.3 70.3 45 9 48.2
19:55 1020 30.12 849 25.07 21.2 70.2 44 8.6 47.6
20:00 1020 30.12 849 25.07 21.3 70.4 44 8.9 48
20:05 1020 30.12 849 25.07 21.2 70.2 46 9.2 48.5
20:10 1020 30.12 849 25.07 21 69.8 45 8.9 48
20:15 1020 30.12 849 25.07 20.7 69.3 47 9 48.3
20:20 1020 30.12 849 25.07 20.7 69.2 46 8.8 47.9
20:25 1020 30.12 849 25.07 20.9 69.6 43 8.1 46.6
20:30 1020 30.12 849 25.07 20.8 69.5 45 8.6 47.4
20:35 1020 30.12 849 25.07 20.5 68.8 47 8.8 47.9
20:40 1020 30.12 849 25.07 20.1 68.2 49 9.2 48.5
20:45 1020 30.12 849 25.07 19.7 67.4 50 9.1 48.5
20:50 1020 30.12 849 25.07 19.5 67.2 50 8.9 48
20:55 1020 30.12 849 25.07 19.4 67 51 9.2 48.5
21:00 1020 30.12 849 25.07 19.3 66.7 50 8.7 47.7
21:05 1020 30.12 849 25.07 19.3 66.8 50 8.7 47.6
21:10 1020 30.12 849 25.07 19.3 66.8 49 8.5 47.4
21:15 1020 30.12 849 25.07 19.3 66.8 50 8.7 47.7
21:20 1020 30.12 849 25.07 19.1 66.4 53 9.3 48.7
21:25 1020 30.12 849 25.07 18.8 65.9 51 8.5 47.3
21:30 1020 30.12 849 25.07 18.7 65.6 51 8.6 47.5
21:35 1020 30.12 849 25.07 18.5 65.2 52 8.6 47.5
21:40 1020 30.12 849 25.07 18.3 65 52 8.4 47.2
21:45 1020 30.12 849 25.07 18.2 64.7 51 7.9 46.2
21:50 1020 30.12 849 25.07 18.6 65.6 51 8.3 47
21:55 1020 30.12 849 25.07 18.4 65.1 49 7.7 45.8
22:00 1020 30.12 849 25.07 18.5 65.3 50 8 46.4
22:05 1020 30.12 849 25.07 18.9 65.9 46 7.1 44.7
22:10 1020 30.12 849 25.07 19 66.3 48 7.9 46.2
22:15 1020 30.12 849 25.07 18.5 65.3 49 7.8 46.1
22:20 1020 30.12 849 25.07 18.1 64.6 51 8 46.4
22:25 1020 30.12 849 25.07 17.7 63.9 52 7.9 46.3
22:30 1020 30.12 849 25.07 17.3 63.2 55 8.4 47.1
22:35 1020 30.12 849 25.07 17 62.6 55 8 46.3
22:40 1020 30.12 849 25.07 16.9 62.4 56 8.1 46.5
22:45 1020 30.12 849 25.07 16.7 62.1 56 7.9 46.3
22:50 1020 30.12 849 25.07 16.7 62.1 55 7.8 46.1
22:55 1020 30.12 849 25.07 16.5 61.8 58 8.3 46.9
23:00 1020 30.12 850 25.1 16.2 61.1 58 8 46.4
23:05 1020 30.12 849 25.07 16.4 61.5 60 8.7 47.7
23:10 1020 30.12 850 25.1 16.2 61.2 60 8.4 47.2
23:15 1020 30.12 850 25.1 15.7 60.2 61 8.3 46.9
23:20 1020 30.12 850 25.1 15.4 59.7 62 8.2 46.8
23:25 1020 30.12 850 25.1 15.2 59.3 63 8.2 46.7
23:30 1020 30.12 850 25.1 15 59 63 8.1 46.6
23:35 1020 30.12 849 25.07 14.9 58.8 63 7.9 46.2
23:40 1020 30.12 849 25.07 14.9 58.8 64 8.1 46.7
23:45 1020 30.12 849 25.07 14.6 58.3 64 7.9 46.2
23:50 1020 30.12 849 25.07 14.8 58.6 62 7.6 45.7
23:55 1020 30.12 849 25.07 15 58.9 60 7.3 45.2
24:00 1020 30.12 849 25.07 15.2 59.3 61 7.9 46.1